createdAt,value
2018-05-03T00:00:34.217Z,11.90
2018-05-03T00:03:01.763Z,11.90
2018-05-03T00:05:29.339Z,11.90
2018-05-03T00:07:56.891Z,11.90
2018-05-03T00:10:24.461Z,12.00
2018-05-03T00:12:52.005Z,12.10
2018-05-03T00:15:19.571Z,12.10
2018-05-03T00:17:47.109Z,12.10
2018-05-03T00:20:14.676Z,12.20
2018-05-03T00:22:42.247Z,12.20
2018-05-03T00:25:09.807Z,12.30
2018-05-03T00:27:37.357Z,12.40
2018-05-03T00:30:04.908Z,12.40
2018-05-03T00:32:32.440Z,12.50
2018-05-03T00:35:00.750Z,12.50
2018-05-03T00:37:28.309Z,12.50
2018-05-03T00:39:55.888Z,12.40
2018-05-03T00:42:23.457Z,12.40
2018-05-03T00:44:51.052Z,12.30
2018-05-03T00:47:19.347Z,12.30
2018-05-03T00:49:47.702Z,12.30
2018-05-03T00:54:49.278Z,12.40
2018-05-03T00:57:17.590Z,12.30
2018-05-03T00:59:45.186Z,12.30
2018-05-03T01:02:12.731Z,12.20
2018-05-03T01:04:40.293Z,12.00
2018-05-03T01:07:07.862Z,11.90
2018-05-03T01:09:35.421Z,11.80
2018-05-03T01:12:03.005Z,11.70
2018-05-03T01:14:30.566Z,11.70
2018-05-03T01:16:58.127Z,11.80
2018-05-03T01:19:25.700Z,11.70
2018-05-03T01:21:54.044Z,11.60
2018-05-03T01:24:21.614Z,11.60
2018-05-03T01:26:49.156Z,11.60
2018-05-03T01:29:16.725Z,11.60
2018-05-03T01:31:44.335Z,11.50
2018-05-03T01:34:11.900Z,11.50
2018-05-03T01:36:39.460Z,11.60
2018-05-03T01:39:07.025Z,11.60
2018-05-03T01:41:34.596Z,11.60
2018-05-03T01:44:02.140Z,11.60
2018-05-03T01:46:29.720Z,11.60
2018-05-03T01:48:57.271Z,11.50
2018-05-03T01:51:24.839Z,11.30
2018-05-03T01:53:52.380Z,11.30
2018-05-03T01:56:19.964Z,11.20
2018-05-03T01:58:47.501Z,11.30
2018-05-03T02:01:15.080Z,11.20
2018-05-03T02:03:42.623Z,11.20
2018-05-03T02:06:10.203Z,11.20
2018-05-03T02:08:37.747Z,11.30
2018-05-03T02:11:05.318Z,11.40
2018-05-03T02:13:32.857Z,11.50
2018-05-03T02:16:00.424Z,11.50
2018-05-03T02:18:28.031Z,11.50
2018-05-03T02:20:56.507Z,11.40
2018-05-03T02:23:24.894Z,11.50
2018-05-03T02:25:53.335Z,11.60
2018-05-03T02:28:20.900Z,11.50
2018-05-03T02:30:48.467Z,11.60
2018-05-03T02:33:16.054Z,11.70
2018-05-03T02:35:43.595Z,11.60
2018-05-03T02:38:11.168Z,11.70
2018-05-03T02:40:38.707Z,11.70
2018-05-03T02:43:06.277Z,11.80
2018-05-03T02:45:33.822Z,11.90
2018-05-03T02:48:01.397Z,12.00
2018-05-03T02:50:28.962Z,12.00
2018-05-03T02:52:56.527Z,12.10
2018-05-03T02:55:24.075Z,12.20
2018-05-03T02:58:09.246Z,12.20
2018-05-03T03:00:54.461Z,12.30
2018-05-03T03:03:40.381Z,12.30
2018-05-03T03:06:19.751Z,12.30
2018-05-03T03:12:40.454Z,12.20
2018-05-03T03:15:25.788Z,12.20
2018-05-03T03:18:11.119Z,12.30
2018-05-03T03:20:57.019Z,12.20
2018-05-03T03:23:42.148Z,12.20
2018-05-03T03:29:44.042Z,12.30
2018-05-03T03:32:23.451Z,12.40
2018-05-03T03:35:02.612Z,12.40
2018-05-03T03:37:42.040Z,12.50
2018-05-03T03:40:25.395Z,12.60
2018-05-03T03:46:07.690Z,12.70
2018-05-03T03:48:35.267Z,12.70
2018-05-03T03:51:03.827Z,12.70
2018-05-03T03:53:31.401Z,12.70
2018-05-03T03:55:58.955Z,12.60
2018-05-03T03:58:26.520Z,12.50
2018-05-03T04:00:54.056Z,12.40
2018-05-03T04:03:22.390Z,12.40
2018-05-03T04:05:49.937Z,12.30
2018-05-03T04:08:17.502Z,12.30
2018-05-03T04:10:45.052Z,12.40
2018-05-03T04:13:12.614Z,12.40
2018-05-03T04:15:40.178Z,12.30
2018-05-03T04:18:19.611Z,12.30
2018-05-03T04:21:08.634Z,12.40
2018-05-03T04:23:48.101Z,12.40
2018-05-03T04:26:15.654Z,12.40
2018-05-03T04:28:43.265Z,12.10
2018-05-03T04:31:10.806Z,12.20
2018-05-03T04:33:38.366Z,12.20
2018-05-03T04:36:05.918Z,12.20
2018-05-03T04:38:33.488Z,12.20
2018-05-03T04:41:01.032Z,12.20
2018-05-03T04:43:28.610Z,12.30
2018-05-03T04:45:56.163Z,12.30
2018-05-03T04:48:23.716Z,12.20
2018-05-03T04:50:51.301Z,12.30
2018-05-03T04:53:18.854Z,12.40
2018-05-03T04:55:46.432Z,12.40
2018-05-03T04:58:14.831Z,12.30
2018-05-03T05:00:42.519Z,12.40
2018-05-03T05:03:10.155Z,12.40
2018-05-03T05:05:37.803Z,12.50
2018-05-03T05:08:05.364Z,12.50
2018-05-03T05:10:33.772Z,12.80
2018-05-03T05:13:01.267Z,12.70
2018-05-03T05:15:28.846Z,13.00
2018-05-03T05:17:56.445Z,13.10
2018-05-03T05:20:24.752Z,13.50
2018-05-03T05:22:52.290Z,13.50
2018-05-03T05:25:19.858Z,13.70
2018-05-03T05:27:47.493Z,13.90
2018-05-03T05:30:15.176Z,14.00
2018-05-03T05:32:42.786Z,14.10
2018-05-03T05:35:11.201Z,14.20
2018-05-03T05:37:38.758Z,14.20
2018-05-03T05:40:06.365Z,14.20
2018-05-03T05:42:33.916Z,14.20
2018-05-03T05:45:01.489Z,14.20
2018-05-03T05:47:29.071Z,14.10
2018-05-03T05:49:57.398Z,14.10
2018-05-03T05:52:24.954Z,14.10
2018-05-03T05:54:52.625Z,14.10
2018-05-03T05:57:20.187Z,14.10
2018-05-03T05:59:47.744Z,14.20
2018-05-03T06:02:15.290Z,14.20
2018-05-03T06:04:42.853Z,14.30
2018-05-03T06:07:10.399Z,14.30
2018-05-03T06:09:37.976Z,14.40
2018-05-03T06:12:05.506Z,14.40
2018-05-03T06:14:33.089Z,14.40
2018-05-03T06:17:00.635Z,14.40
2018-05-03T06:19:28.197Z,14.30
2018-05-03T06:21:55.758Z,14.30
2018-05-03T06:24:23.294Z,14.30
2018-05-03T06:26:51.626Z,14.20
2018-05-03T06:29:19.178Z,14.20
2018-05-03T06:31:46.754Z,14.10
2018-05-03T06:34:14.312Z,14.10
2018-05-03T06:36:41.866Z,14.00
2018-05-03T06:39:09.407Z,13.90
2018-05-03T06:41:36.970Z,13.90
2018-05-03T06:44:04.518Z,13.90
2018-05-03T06:46:32.107Z,14.00
2018-05-03T06:48:59.663Z,14.00
2018-05-03T06:51:27.241Z,14.00
2018-05-03T06:53:54.811Z,14.00
2018-05-03T06:56:22.381Z,14.10
2018-05-03T06:58:50.688Z,14.20
2018-05-03T07:01:18.288Z,14.20
2018-05-03T07:03:45.856Z,14.30
2018-05-03T07:06:13.423Z,14.30
2018-05-03T07:08:40.976Z,14.40
2018-05-03T07:11:08.542Z,14.50
2018-05-03T07:13:36.081Z,14.60
2018-05-03T07:16:03.678Z,14.60
2018-05-03T07:18:31.995Z,14.70
2018-05-03T07:20:59.564Z,14.70
2018-05-03T07:23:27.114Z,14.80
2018-05-03T07:25:54.692Z,14.80
2018-05-03T07:28:22.235Z,14.80
2018-05-03T07:30:49.799Z,15.00
2018-05-03T07:33:17.355Z,15.10
2018-05-03T07:35:44.919Z,15.20
2018-05-03T07:38:12.471Z,15.40
2018-05-03T07:40:40.060Z,15.70
2018-05-03T07:43:07.595Z,15.90
2018-05-03T07:45:35.167Z,16.00
2018-05-03T07:48:02.769Z,16.00
2018-05-03T07:50:30.417Z,15.80
2018-05-03T07:52:58.800Z,15.90
2018-05-03T07:55:27.229Z,16.10
2018-05-03T07:57:54.777Z,16.10
2018-05-03T08:00:22.320Z,16.20
2018-05-03T08:02:50.658Z,16.30
2018-05-03T08:05:18.220Z,16.30
2018-05-03T08:07:45.794Z,16.30
2018-05-03T08:10:13.340Z,16.40
2018-05-03T08:12:40.981Z,16.60
2018-05-03T08:15:08.549Z,16.70
2018-05-03T08:17:36.118Z,16.70
2018-05-03T08:20:03.678Z,16.70
2018-05-03T08:22:31.239Z,16.70
2018-05-03T08:24:58.808Z,16.80
2018-05-03T08:27:26.392Z,16.60
2018-05-03T08:29:54.715Z,16.40
2018-05-03T08:32:22.284Z,16.40
2018-05-03T08:34:49.818Z,16.60
2018-05-03T08:37:17.379Z,16.70
2018-05-03T08:39:44.922Z,16.80
2018-05-03T08:42:12.486Z,16.80
2018-05-03T08:44:40.048Z,16.70
2018-05-03T08:47:07.619Z,16.80
2018-05-03T08:49:35.162Z,16.90
2018-05-03T08:52:02.733Z,17.00
2018-05-03T08:54:30.274Z,17.10
2018-05-03T08:56:58.601Z,17.50
2018-05-03T08:59:26.141Z,17.40
2018-05-03T09:01:53.779Z,17.50
2018-05-03T09:04:21.279Z,17.60
2018-05-03T09:06:48.843Z,17.50
2018-05-03T09:09:16.398Z,17.60
2018-05-03T09:11:43.968Z,17.60
2018-05-03T09:14:11.506Z,17.50
2018-05-03T09:16:39.085Z,17.40
2018-05-03T09:19:06.636Z,17.40
2018-05-03T09:21:34.207Z,17.50
2018-05-03T09:24:01.756Z,17.60
2018-05-03T09:26:29.333Z,17.80
2018-05-03T09:28:56.866Z,17.80
2018-05-03T09:31:24.438Z,17.90
2018-05-03T09:33:51.998Z,17.90
2018-05-03T09:36:19.576Z,17.90
2018-05-03T09:38:47.126Z,18.10
2018-05-03T09:41:14.666Z,18.20
2018-05-03T09:43:42.231Z,18.10
2018-05-03T09:46:09.789Z,18.00
2018-05-03T09:48:37.366Z,18.20
2018-05-03T09:51:04.916Z,18.20
2018-05-03T09:53:32.483Z,18.30
2018-05-03T09:56:00.028Z,18.20
2018-05-03T09:58:27.622Z,18.00
2018-05-03T10:00:55.928Z,18.20
2018-05-03T10:03:23.500Z,18.20
2018-05-03T10:05:51.047Z,18.40
2018-05-03T10:08:18.623Z,18.20
2018-05-03T10:10:46.173Z,18.20
2018-05-03T10:13:13.751Z,18.20
2018-05-03T10:15:41.311Z,18.00
2018-05-03T10:18:08.889Z,17.80
2018-05-03T10:20:36.435Z,17.90
2018-05-03T10:23:04.010Z,18.10
2018-05-03T10:25:31.573Z,18.00
2018-05-03T10:27:59.150Z,18.00
2018-05-03T10:30:27.471Z,17.90
2018-05-03T10:32:55.037Z,17.90
2018-05-03T10:35:22.576Z,17.90
2018-05-03T10:37:50.155Z,18.00
2018-05-03T10:40:17.717Z,18.10
2018-05-03T10:42:45.300Z,18.30
2018-05-03T10:45:12.834Z,18.50
2018-05-03T10:47:40.397Z,18.60
2018-05-03T10:50:07.947Z,18.60
2018-05-03T10:52:35.535Z,18.50
2018-05-03T10:55:03.865Z,18.10
2018-05-03T10:57:31.494Z,18.10
2018-05-03T10:59:59.011Z,17.90
2018-05-03T11:02:26.597Z,17.80
2018-05-03T11:04:54.149Z,17.60
2018-05-03T11:07:21.715Z,17.50
2018-05-03T11:09:49.253Z,17.60
2018-05-03T11:12:16.825Z,17.80
2018-05-03T11:14:44.391Z,18.00
2018-05-03T11:17:11.935Z,18.10
2018-05-03T11:19:39.515Z,18.30
2018-05-03T11:22:07.050Z,18.40
2018-05-03T11:24:34.627Z,18.30
2018-05-03T11:27:02.179Z,18.30
2018-05-03T11:29:29.755Z,18.10
2018-05-03T11:31:57.301Z,18.00
2018-05-03T11:34:24.871Z,17.90
2018-05-03T11:36:52.444Z,18.00
2018-05-03T11:39:20.022Z,18.00
2018-05-03T11:41:48.343Z,18.00
2018-05-03T11:44:15.911Z,18.00
2018-05-03T11:46:43.440Z,18.00
2018-05-03T11:49:11.021Z,18.10
2018-05-03T11:51:38.579Z,18.20
2018-05-03T11:54:06.148Z,18.30
2018-05-03T11:56:33.688Z,18.30
2018-05-03T11:59:01.259Z,18.40
2018-05-03T12:01:28.815Z,18.30
2018-05-03T12:03:56.383Z,18.40
2018-05-03T12:06:23.922Z,18.40
2018-05-03T12:08:51.495Z,18.50
2018-05-03T12:11:19.049Z,18.60
2018-05-03T12:13:46.620Z,18.70
2018-05-03T12:16:14.160Z,18.80
2018-05-03T12:18:41.730Z,19.00
2018-05-03T12:21:09.291Z,18.70
2018-05-03T12:23:36.847Z,18.60
2018-05-03T12:26:04.392Z,18.80
2018-05-03T12:28:31.998Z,18.90
2018-05-03T12:30:59.546Z,18.90
2018-05-03T12:33:27.115Z,18.90
2018-05-03T12:35:54.667Z,19.10
2018-05-03T12:38:22.239Z,19.20
2018-05-03T12:40:49.777Z,19.50
2018-05-03T12:43:17.346Z,19.70
2018-05-03T12:45:44.917Z,19.80
2018-05-03T12:48:12.471Z,20.00
2018-05-03T12:50:40.030Z,20.20
2018-05-03T12:53:07.570Z,20.30
2018-05-03T12:55:35.135Z,20.50
2018-05-03T12:58:02.675Z,20.70
2018-05-03T13:00:30.257Z,20.50
2018-05-03T13:02:57.810Z,20.50
2018-05-03T13:05:25.363Z,20.40
2018-05-03T13:07:52.899Z,20.40
2018-05-03T13:10:20.467Z,20.20
2018-05-03T13:12:48.019Z,20.20
2018-05-03T13:15:16.158Z,20.10
2018-05-03T13:17:43.703Z,20.10
2018-05-03T13:20:11.276Z,20.40
2018-05-03T13:22:38.830Z,20.70
2018-05-03T13:25:06.408Z,21.00
2018-05-03T13:27:34.725Z,21.30
2018-05-03T13:30:02.289Z,21.30
2018-05-03T13:32:29.842Z,21.10
2018-05-03T13:34:57.412Z,20.80
2018-05-03T13:37:24.945Z,20.60
2018-05-03T13:39:52.542Z,20.80
2018-05-03T13:42:20.090Z,20.70
2018-05-03T13:44:47.665Z,20.60
2018-05-03T13:47:15.979Z,20.70
2018-05-03T13:49:44.317Z,20.90
2018-05-03T13:52:11.864Z,20.90
2018-05-03T13:54:39.428Z,21.20
2018-05-03T13:57:06.966Z,21.60
2018-05-03T13:59:34.540Z,22.00
2018-05-03T14:02:02.095Z,22.20
2018-05-03T14:04:29.673Z,21.80
2018-05-03T14:06:57.247Z,21.60
2018-05-03T14:09:24.789Z,21.60
2018-05-03T14:11:52.359Z,21.60
2018-05-03T14:14:19.904Z,22.00
2018-05-03T14:16:47.480Z,21.90
2018-05-03T14:19:15.860Z,21.90
2018-05-03T14:21:43.383Z,21.90
2018-05-03T14:24:10.946Z,21.60
2018-05-03T14:26:38.510Z,21.80
2018-05-03T14:29:06.163Z,21.90
2018-05-03T14:31:33.741Z,22.10
2018-05-03T14:34:01.286Z,22.10
2018-05-03T14:36:28.861Z,22.00
2018-05-03T14:38:56.413Z,21.90
2018-05-03T14:41:23.979Z,21.90
2018-05-03T14:43:51.520Z,21.90
2018-05-03T14:46:19.112Z,22.00
2018-05-03T14:48:47.440Z,21.90
2018-05-03T14:51:15.771Z,21.70
2018-05-03T14:53:43.319Z,21.70
2018-05-03T14:56:10.877Z,21.70
2018-05-03T14:58:38.428Z,21.60
2018-05-03T15:01:05.994Z,21.80
2018-05-03T15:03:33.526Z,21.70
2018-05-03T15:06:01.103Z,21.60
2018-05-03T15:08:28.647Z,21.60
2018-05-03T15:10:56.220Z,21.70
2018-05-03T15:13:23.761Z,21.50
2018-05-03T15:15:51.347Z,21.60
2018-05-03T15:18:18.910Z,21.50
2018-05-03T15:20:46.486Z,21.50
2018-05-03T15:23:14.046Z,21.50
2018-05-03T15:25:41.602Z,21.60
2018-05-03T15:28:09.897Z,21.70
2018-05-03T15:30:37.484Z,21.60
2018-05-03T15:33:05.796Z,21.40
2018-05-03T15:35:33.346Z,21.40
2018-05-03T15:38:00.915Z,21.50
2018-05-03T15:40:28.454Z,21.40
2018-05-03T15:42:56.019Z,21.60
2018-05-03T15:45:23.566Z,21.40
2018-05-03T15:47:51.127Z,21.40
2018-05-03T15:50:19.458Z,21.40
2018-05-03T15:52:47.041Z,21.30
2018-05-03T15:55:15.365Z,21.10
2018-05-03T15:57:42.943Z,21.10
2018-05-03T16:00:10.487Z,21.20
2018-05-03T16:02:38.051Z,21.40
2018-05-03T16:05:05.592Z,21.30
2018-05-03T16:07:33.161Z,21.10
2018-05-03T16:10:00.714Z,21.10
2018-05-03T16:12:28.295Z,21.00
2018-05-03T16:14:55.854Z,21.10
2018-05-03T16:17:23.427Z,20.90
2018-05-03T16:19:51.009Z,20.80
2018-05-03T16:22:18.595Z,20.60
2018-05-03T16:24:46.908Z,20.50
2018-05-03T16:27:14.590Z,20.50
2018-05-03T16:29:42.835Z,20.30
2018-05-03T16:32:10.403Z,20.30
2018-05-03T16:34:37.959Z,20.40
2018-05-03T16:37:05.536Z,20.40
2018-05-03T16:39:33.083Z,20.30
2018-05-03T16:42:00.653Z,20.10
2018-05-03T16:44:28.196Z,20.00
2018-05-03T16:46:55.772Z,19.90
2018-05-03T16:49:23.312Z,19.90
2018-05-03T16:51:50.900Z,19.90
2018-05-03T16:54:18.449Z,19.90
2018-05-03T16:56:46.015Z,19.80
2018-05-03T16:59:13.563Z,19.70
2018-05-03T17:01:41.116Z,19.60
2018-05-03T17:04:08.690Z,19.60
2018-05-03T17:06:36.235Z,19.40
2018-05-03T17:09:03.807Z,19.30
2018-05-03T17:11:31.356Z,19.40
2018-05-03T17:13:58.914Z,19.30
2018-05-03T17:16:26.454Z,19.40
2018-05-03T17:18:54.029Z,19.30
2018-05-03T17:21:21.580Z,19.40
2018-05-03T17:23:49.150Z,19.40
2018-05-03T17:26:16.701Z,19.30
2018-05-03T17:28:44.268Z,19.20
2018-05-03T17:31:11.815Z,19.10
2018-05-03T17:33:39.386Z,19.10
2018-05-03T17:36:06.945Z,19.10
2018-05-03T17:38:34.506Z,19.10
2018-05-03T17:41:02.043Z,18.90
2018-05-03T17:43:29.625Z,18.80
2018-05-03T17:45:57.172Z,18.80
2018-05-03T17:48:24.746Z,18.80
2018-05-03T17:50:52.288Z,18.80
2018-05-03T17:53:19.846Z,18.80
2018-05-03T17:55:47.390Z,18.80
2018-05-03T17:58:15.720Z,18.70
2018-05-03T18:00:43.258Z,18.70
2018-05-03T18:03:10.827Z,18.70
2018-05-03T18:05:38.369Z,18.60
2018-05-03T18:08:05.940Z,18.60
2018-05-03T18:10:33.483Z,18.70
2018-05-03T18:13:01.053Z,18.60
2018-05-03T18:15:28.637Z,18.50
2018-05-03T18:17:56.197Z,18.50
2018-05-03T18:20:23.738Z,18.40
2018-05-03T18:22:51.301Z,18.50
2018-05-03T18:25:18.860Z,18.40
2018-05-03T18:27:46.410Z,18.40
2018-05-03T18:30:13.975Z,18.30
2018-05-03T18:32:41.554Z,18.40
2018-05-03T18:35:09.134Z,18.30
2018-05-03T18:37:36.696Z,18.30
2018-05-03T18:40:04.264Z,18.20
2018-05-03T18:42:31.803Z,18.10
2018-05-03T18:44:59.372Z,18.10
2018-05-03T18:47:26.916Z,18.00
2018-05-03T18:49:54.556Z,18.00
2018-05-03T18:52:22.044Z,17.90
2018-05-03T18:54:49.670Z,17.80
2018-05-03T18:57:17.957Z,17.80
2018-05-03T18:59:45.524Z,17.80
2018-05-03T19:02:13.075Z,17.70
2018-05-03T19:04:40.640Z,17.70
2018-05-03T19:07:08.185Z,17.60
2018-05-03T19:09:35.753Z,17.60
2018-05-03T19:12:03.295Z,17.60
2018-05-03T19:14:30.955Z,17.60
2018-05-03T19:16:58.442Z,17.60
2018-05-03T19:19:26.001Z,17.60
2018-05-03T19:21:53.547Z,17.60
2018-05-03T19:24:21.123Z,17.70
2018-05-03T19:26:48.657Z,17.60
2018-05-03T19:29:16.244Z,17.60
2018-05-03T19:31:43.787Z,17.60
2018-05-03T19:34:11.341Z,17.60
2018-05-03T19:36:38.902Z,17.60
2018-05-03T19:39:06.468Z,17.60
2018-05-03T19:41:34.035Z,17.50
2018-05-03T19:44:01.569Z,17.60
2018-05-03T19:46:29.140Z,17.60
2018-05-03T19:48:56.665Z,17.70
2018-05-03T19:51:24.996Z,17.70
2018-05-03T19:53:52.522Z,17.60
2018-05-03T19:56:20.104Z,17.60
2018-05-03T19:58:47.641Z,17.70
2018-05-03T20:01:15.214Z,17.60
2018-05-03T20:03:42.757Z,17.60
2018-05-03T20:06:10.355Z,17.50
2018-05-03T20:08:37.900Z,17.50
2018-05-03T20:11:05.467Z,17.50
2018-05-03T20:13:33.051Z,17.50
2018-05-03T20:16:00.630Z,17.50
2018-05-03T20:18:28.153Z,17.40
2018-05-03T20:20:55.731Z,17.40
2018-05-03T20:23:23.317Z,17.30
2018-05-03T20:25:51.659Z,17.30
2018-05-03T20:28:19.211Z,17.20
2018-05-03T20:30:46.789Z,17.20
2018-05-03T20:33:15.309Z,17.20
2018-05-03T20:35:42.879Z,17.20
2018-05-03T20:38:10.428Z,17.20
2018-05-03T20:40:37.998Z,17.20
2018-05-03T20:43:05.543Z,17.10
2018-05-03T20:45:33.093Z,17.10
2018-05-03T20:48:00.653Z,17.10
2018-05-03T20:50:28.977Z,17.10
2018-05-03T20:52:56.517Z,17.10
2018-05-03T20:55:24.105Z,17.10
2018-05-03T20:57:51.681Z,17.10
2018-05-03T21:00:20.057Z,17.00
2018-05-03T21:02:48.449Z,16.90
2018-05-03T21:05:16.846Z,16.90
2018-05-03T21:07:45.276Z,16.80
2018-05-03T21:10:12.878Z,16.80
2018-05-03T21:12:40.540Z,16.80
2018-05-03T21:15:08.216Z,16.80
2018-05-03T21:17:36.551Z,16.80
2018-05-03T21:20:04.130Z,16.80
2018-05-03T21:22:31.708Z,16.70
2018-05-03T21:25:00.015Z,16.70
2018-05-03T21:27:27.578Z,16.60
2018-05-03T21:29:55.115Z,16.60
2018-05-03T21:32:22.683Z,16.50
2018-05-03T21:34:50.218Z,16.60
2018-05-03T21:37:18.550Z,16.60
2018-05-03T21:39:46.096Z,16.60
2018-05-03T21:42:13.665Z,16.60
2018-05-03T21:44:41.207Z,16.60
2018-05-03T21:47:08.818Z,16.50
2018-05-03T21:49:37.199Z,16.60
2018-05-03T21:52:05.605Z,16.50
2018-05-03T21:54:33.211Z,16.60
2018-05-03T21:57:00.795Z,16.50
2018-05-03T21:59:28.332Z,16.50
2018-05-03T22:01:55.911Z,16.50
2018-05-03T22:04:23.455Z,16.40
2018-05-03T22:06:51.016Z,16.50
2018-05-03T22:09:18.549Z,16.50
2018-05-03T22:11:46.103Z,16.50
2018-05-03T22:14:13.645Z,16.50
2018-05-03T22:16:41.199Z,16.50
2018-05-03T22:19:09.534Z,16.50
2018-05-03T22:21:37.081Z,16.50
2018-05-03T22:24:04.644Z,16.50
2018-05-03T22:26:32.183Z,16.50
2018-05-03T22:28:59.747Z,16.60
2018-05-03T22:31:27.277Z,16.60
2018-05-03T22:33:54.845Z,16.60
2018-05-03T22:36:22.388Z,16.70
2018-05-03T22:38:50.709Z,16.70
2018-05-03T22:41:18.247Z,16.70
2018-05-03T22:43:45.812Z,16.70
2018-05-03T22:46:13.345Z,16.60
2018-05-03T22:48:41.676Z,16.60
2018-05-03T22:51:09.211Z,16.60
2018-05-03T22:53:36.771Z,16.70
2018-05-03T22:56:04.314Z,16.70
2018-05-03T22:58:31.898Z,16.70
2018-05-03T23:00:59.552Z,16.80
2018-05-03T23:03:27.126Z,16.80
2018-05-03T23:05:54.672Z,16.80
2018-05-03T23:08:22.230Z,16.80
2018-05-03T23:10:49.774Z,16.70
2018-05-03T23:13:17.351Z,16.80
2018-05-03T23:15:44.894Z,16.80
2018-05-03T23:18:12.472Z,16.80
2018-05-03T23:20:40.020Z,16.80
2018-05-03T23:23:07.599Z,16.70
2018-05-03T23:25:35.143Z,16.80
2018-05-03T23:28:02.726Z,16.70
2018-05-03T23:30:30.331Z,16.70
2018-05-03T23:32:57.875Z,16.70
2018-05-03T23:35:25.434Z,16.70
2018-05-03T23:37:52.994Z,16.70
2018-05-03T23:40:21.314Z,16.60
2018-05-03T23:42:48.882Z,16.60
2018-05-03T23:45:16.431Z,16.60
2018-05-03T23:47:43.988Z,16.70
2018-05-03T23:50:11.562Z,16.70
2018-05-03T23:52:39.106Z,16.60
2018-05-03T23:55:06.686Z,16.60
2018-05-03T23:57:34.231Z,16.50
